Für Piloten

Informationen für Piloten zum Flugplatz Borken-Hoxfeld
Hier findest Du alle relevanten Informationen, die Du als Pilot benötigst, um Borken-Hoxfeld anzufliegen.

Flugplatz: Borken-Hoxfeld ICAO-Code: EDLY
Borken-Hoxfeld Info: 122,925 Mhz
GAFOR Gebiet: 32
Platzrunde: Motorflug; -> Südplatzrunde; Segelflug; -> Nordplatzrunde;
Landegebühr: z.Zt. 5,00 Euro
Platzhöhe: 48m üMSL
Pisten: 12/30 – 740 m x 30 m, GRAS
Betriebszeiten: PPR (in den Sommermonaten Mittagspause beachten)

 

Wetterforecast:

Available data for EDDL from the past 2 hours
DUESSELDORF
Metar
EDDL 260320Z 23012KT 9999 FEW018 BKN024 BKN060 09/05 Q1013 NOSIG

03:20 UTC

Wind: 230° 12kt

Visibility: 9999 m

Sky: FEW 1800 ft

Temp: 9 deg C / 48.2 deg F

Dewpoint: 5 deg C / 41 deg F

Pressure: 1013 hPa

TAF
TAF EDDL 252300Z 2600/2706 24012KT 9999 BKN030 PROB30 TEMPO 2602/2609 26015G25KT SHRA BKN015CB BECMG 2609/2611 26015G25KT BECMG 2615/2618 26008KT BECMG 2619/2622 VRB03KT

Alle obigen Informationen ersetzen nicht die vorgeschriebene, persönliche Flugvorbereitung.